Time;durP1;ratioP1;P1;durP2;ratioP2;P2;SDS_P1;SDS_P2;PMS_P1;PMS_P2;Temp;Humidity;BMP_temperature;BMP_pressure;BME280_temperature;BME280_humidity;BME280_pressure;Samples;Min_cycle;Max_cycle;Signal;HPM_P1;HPM_P2
2022/01/23 00:00:17;;;;;;;78.22;48.97;;;;;;;;;;5130091;27;20409;-87
2022/01/23 00:02:44;;;;;;;79.18;48.15;;;;;;;;;;5128443;27;20434;-87
2022/01/23 00:05:11;;;;;;;78.47;47.65;;;;;;;;;;5130995;27;20401;-86
2022/01/23 00:07:39;;;;;;;76.43;46.63;;;;;;;;;;5130600;27;20501;-87
2022/01/23 00:10:09;;;;;;;79.35;48.80;;;;;;;;;;5131193;27;20403;-87
2022/01/23 00:12:43;;;;;;;82.63;49.15;;;;;;;;;;5130127;27;20416;-88
2022/01/23 00:17:55;;;;;;;89.40;52.00;;;;;;;;;;5130299;27;20380;-87
2022/01/23 00:20:22;;;;;;;85.80;51.20;;;;;;;;;;5130306;27;20397;-87
2022/01/23 00:22:51;;;;;;;84.43;51.85;;;;;;;;;;5130516;27;20442;-86
2022/01/23 00:30:50;;;;;;;82.53;49.53;;;;;;;;;;5129231;27;20392;-87
2022/01/23 00:33:18;;;;;;;81.05;48.63;;;;;;;;;;5130884;27;20946;-87
2022/01/23 00:35:47;;;;;;;80.05;48.25;;;;;;;;;;5129258;27;20454;-86
2022/01/23 00:38:15;;;;;;;78.88;50.13;;;;;;;;;;5129509;27;20752;-87
2022/01/23 00:40:45;;;;;;;80.93;49.80;;;;;;;;;;5129272;27;20872;-87
2022/01/23 00:43:17;;;;;;;87.63;52.45;;;;;;;;;;5130683;27;20397;-87
2022/01/23 00:45:47;;;;;;;87.55;52.58;;;;;;;;;;5130182;27;20428;-87
2022/01/23 00:48:16;;;;;;;88.40;52.33;;;;;;;;;;5130081;27;20420;-87
2022/01/23 00:50:45;;;;;;;81.95;51.35;;;;;;;;;;5130341;27;20434;-87
2022/01/23 00:53:14;;;;;;;78.82;48.85;;;;;;;;;;5129564;27;20417;-87
2022/01/23 00:55:44;;;;;;;83.10;48.83;;;;;;;;;;5129599;27;20424;-87
2022/01/23 00:58:12;;;;;;;78.57;48.25;;;;;;;;;;5129938;27;20443;-87
2022/01/23 01:00:40;;;;;;;79.40;48.65;;;;;;;;;;5129116;27;20404;-87
2022/01/23 01:03:07;;;;;;;73.38;46.25;;;;;;;;;;5129644;27;20907;-86
2022/01/23 01:05:34;;;;;;;79.72;48.08;;;;;;;;;;5129800;27;20393;-86
2022/01/23 01:08:02;;;;;;;74.30;46.97;;;;;;;;;;5129604;27;20449;-86
2022/01/23 01:10:36;;;;;;;81.25;48.30;;;;;;;;;;5143584;27;20413;-86
2022/01/23 01:13:06;;;;;;;72.60;47.33;;;;;;;;;;5150973;27;20400;-86
2022/01/23 01:15:53;;;;;;;75.10;47.35;;;;;;;;;;5129375;27;20393;-85
2022/01/23 01:32:06;;;;;;;73.60;45.17;;;;;;;;;;5124704;27;20404;-85
2022/01/23 01:34:38;;;;;;;74.60;44.03;;;;;;;;;;5125422;27;20423;-85
2022/01/23 01:37:08;;;;;;;69.55;43.88;;;;;;;;;;5125867;27;20397;-85
2022/01/23 01:39:35;;;;;;;70.53;43.85;;;;;;;;;;5129122;27;20429;-86
2022/01/23 01:42:02;;;;;;;67.85;43.20;;;;;;;;;;5125118;27;20472;-87
2022/01/23 01:44:30;;;;;;;70.13;43.00;;;;;;;;;;5129010;27;20469;-86
2022/01/23 01:46:58;;;;;;;64.85;41.13;;;;;;;;;;5129817;27;20393;-86
2022/01/23 01:49:27;;;;;;;68.95;41.83;;;;;;;;;;5129090;27;20400;-85
2022/01/23 01:51:54;;;;;;;64.05;40.33;;;;;;;;;;5129248;27;20405;-86
2022/01/23 01:54:23;;;;;;;64.65;40.25;;;;;;;;;;5128781;27;20458;-85
2022/01/23 01:56:52;;;;;;;62.22;39.88;;;;;;;;;;5128984;27;20439;-84
2022/01/23 01:59:45;;;;;;;63.63;40.43;;;;;;;;;;5128761;27;20400;-85
2022/01/23 02:10:26;;;;;;;56.05;35.40;;;;;;;;;;5128538;27;20445;-86
2022/01/23 02:51:52;;;;;;;42.95;26.60;;;;;;;;;;5130053;27;20441;-85
2022/01/23 02:54:30;;;;;;;39.65;25.23;;;;;;;;;;5132542;27;20423;-85
2022/01/23 02:57:02;;;;;;;42.67;25.45;;;;;;;;;;5115650;27;20401;-85
2022/01/23 02:59:32;;;;;;;41.30;25.92;;;;;;;;;;5132308;27;20868;-85
2022/01/23 03:02:08;;;;;;;37.00;25.07;;;;;;;;;;5132380;27;20424;-86
2022/01/23 03:04:38;;;;;;;40.13;24.90;;;;;;;;;;5124155;27;20865;-86
2022/01/23 03:07:17;;;;;;;42.55;25.63;;;;;;;;;;5128662;27;20458;-85
2022/01/23 03:09:59;;;;;;;38.90;24.15;;;;;;;;;;5129475;27;20431;-86
2022/01/23 03:15:31;;;;;;;37.30;23.30;;;;;;;;;;5126807;27;20388;-86
2022/01/23 03:26:22;;;;;;;37.97;23.52;;;;;;;;;;5129118;27;20794;-85
2022/01/23 03:29:18;;;;;;;40.75;25.05;;;;;;;;;;5131913;27;20397;-85
2022/01/23 03:31:58;;;;;;;36.35;22.98;;;;;;;;;;5128987;27;20767;-85
2022/01/23 03:34:27;;;;;;;38.35;24.65;;;;;;;;;;5131322;27;20900;-84
2022/01/23 03:36:56;;;;;;;37.93;24.20;;;;;;;;;;5131807;27;20491;-84
2022/01/23 03:39:24;;;;;;;41.20;24.63;;;;;;;;;;5131388;27;20488;-85
2022/01/23 03:41:52;;;;;;;39.43;23.73;;;;;;;;;;5132239;27;20486;-87
2022/01/23 03:44:22;;;;;;;37.28;24.27;;;;;;;;;;5131814;27;20397;-85
2022/01/23 03:47:01;;;;;;;41.17;24.77;;;;;;;;;;5131960;27;20822;-86
2022/01/23 03:49:31;;;;;;;39.47;23.95;;;;;;;;;;5131582;27;20429;-85
2022/01/23 03:51:59;;;;;;;40.28;24.80;;;;;;;;;;5131959;27;20453;-84
2022/01/23 03:54:26;;;;;;;36.92;24.58;;;;;;;;;;5131614;27;20424;-86
2022/01/23 03:56:55;;;;;;;37.90;24.35;;;;;;;;;;5132231;27;20393;-86
2022/01/23 03:59:22;;;;;;;39.65;24.40;;;;;;;;;;5135430;27;20388;-86
2022/01/23 04:01:49;;;;;;;37.95;24.10;;;;;;;;;;5144187;27;20377;-86
2022/01/23 04:04:28;;;;;;;38.60;24.77;;;;;;;;;;5157467;27;20377;-86
2022/01/23 04:06:55;;;;;;;39.38;25.13;;;;;;;;;;5137900;27;20432;-86
2022/01/23 04:09:21;;;;;;;36.05;23.50;;;;;;;;;;5130978;27;20397;-86
2022/01/23 04:11:49;;;;;;;40.10;24.83;;;;;;;;;;5131376;27;20400;-86
2022/01/23 04:14:19;;;;;;;36.90;25.25;;;;;;;;;;5130916;27;20417;-86
2022/01/23 04:19:38;;;;;;;37.92;24.45;;;;;;;;;;5129590;27;20474;-85
2022/01/23 04:47:43;;;;;;;35.13;21.60;;;;;;;;;;5129207;27;20434;-84
2022/01/23 05:00:54;;;;;;;31.15;21.27;;;;;;;;;;5129950;27;20395;-86
2022/01/23 05:06:06;;;;;;;32.43;22.37;;;;;;;;;;5123242;27;20433;-86
2022/01/23 05:08:35;;;;;;;35.40;21.58;;;;;;;;;;5123637;27;20754;-86
2022/01/23 05:11:02;;;;;;;33.70;21.40;;;;;;;;;;5125219;27;20475;-86
2022/01/23 05:13:31;;;;;;;33.85;22.05;;;;;;;;;;5129156;27;20409;-84
2022/01/23 05:15:58;;;;;;;34.45;22.30;;;;;;;;;;5129793;27;20399;-86
2022/01/23 05:18:26;;;;;;;37.28;22.42;;;;;;;;;;5129335;27;20401;-85
2022/01/23 05:21:03;;;;;;;32.05;21.35;;;;;;;;;;5129379;27;20904;-85
2022/01/23 05:23:29;;;;;;;33.17;21.40;;;;;;;;;;5128843;27;20397;-85
2022/01/23 05:25:56;;;;;;;35.15;21.65;;;;;;;;;;5129010;27;20397;-86
2022/01/23 05:28:23;;;;;;;33.70;21.20;;;;;;;;;;5129097;27;20405;-85
2022/01/23 05:30:50;;;;;;;35.67;22.25;;;;;;;;;;5128494;27;20404;-86
2022/01/23 05:33:17;;;;;;;34.33;21.30;;;;;;;;;;5129208;27;20442;-86
2022/01/23 05:35:45;;;;;;;33.35;22.65;;;;;;;;;;5128690;27;20431;-86
2022/01/23 05:38:12;;;;;;;33.73;22.43;;;;;;;;;;5129248;27;20879;-85
2022/01/23 05:40:40;;;;;;;33.75;21.52;;;;;;;;;;5128853;27;20418;-85
2022/01/23 05:43:07;;;;;;;34.03;20.75;;;;;;;;;;5129518;27;20393;-85
2022/01/23 05:45:37;;;;;;;28.50;19.48;;;;;;;;;;5124863;27;20397;-86
2022/01/23 05:48:05;;;;;;;31.40;20.77;;;;;;;;;;5125260;27;20949;-85
2022/01/23 05:50:31;;;;;;;31.00;20.33;;;;;;;;;;5128601;27;20799;-86
2022/01/23 05:53:00;;;;;;;31.40;19.83;;;;;;;;;;5128942;27;20437;-85
2022/01/23 05:55:26;;;;;;;31.00;20.40;;;;;;;;;;5128265;27;20948;-86
2022/01/23 05:57:53;;;;;;;33.33;21.00;;;;;;;;;;5128933;27;20822;-85
2022/01/23 06:00:20;;;;;;;36.08;21.88;;;;;;;;;;5128719;27;20442;-85
2022/01/23 06:02:47;;;;;;;36.22;22.75;;;;;;;;;;5128785;27;20392;-85
2022/01/23 06:05:14;;;;;;;35.95;22.70;;;;;;;;;;5128744;27;20461;-86
2022/01/23 06:07:42;;;;;;;35.28;22.45;;;;;;;;;;5128939;27;20401;-86
2022/01/23 06:10:20;;;;;;;35.70;22.55;;;;;;;;;;5129504;27;20432;-85
2022/01/23 06:12:47;;;;;;;36.67;22.67;;;;;;;;;;5128902;27;20880;-84
2022/01/23 06:15:15;;;;;;;37.70;23.58;;;;;;;;;;5129060;27;20424;-86
2022/01/23 06:17:42;;;;;;;38.50;23.15;;;;;;;;;;5128452;27;20465;-86
2022/01/23 06:20:12;;;;;;;42.50;24.43;;;;;;;;;;5128822;27;20443;-85
2022/01/23 06:22:39;;;;;;;39.00;24.33;;;;;;;;;;5128754;28;20392;-86
2022/01/23 06:25:09;;;;;;;40.35;24.58;;;;;;;;;;5129821;28;20397;-85
2022/01/23 06:27:37;;;;;;;38.70;24.58;;;;;;;;;;5125530;28;20490;-85
2022/01/23 06:30:06;;;;;;;41.67;23.93;;;;;;;;;;5129006;28;20806;-85
2022/01/23 06:32:33;;;;;;;40.10;23.50;;;;;;;;;;5124395;28;20512;-85
2022/01/23 06:35:00;;;;;;;39.47;23.92;;;;;;;;;;5128819;28;20485;-86
2022/01/23 06:37:27;;;;;;;39.33;23.52;;;;;;;;;;5128943;28;20477;-85
2022/01/23 06:39:54;;;;;;;37.67;24.05;;;;;;;;;;5129416;28;20396;-86
2022/01/23 06:42:21;;;;;;;39.47;23.50;;;;;;;;;;5129029;28;20401;-85
2022/01/23 06:44:49;;;;;;;41.80;24.17;;;;;;;;;;5129272;28;20755;-85
2022/01/23 06:47:15;;;;;;;39.00;23.08;;;;;;;;;;5129752;27;20951;-85
2022/01/23 06:49:42;;;;;;;39.45;23.55;;;;;;;;;;5131710;28;20397;-86
2022/01/23 06:52:09;;;;;;;39.03;23.27;;;;;;;;;;5134083;28;20441;-86
2022/01/23 06:54:36;;;;;;;39.25;23.38;;;;;;;;;;5149575;27;20389;-85
2022/01/23 06:57:03;;;;;;;35.83;22.58;;;;;;;;;;5142765;27;20446;-85
2022/01/23 06:59:30;;;;;;;38.28;23.75;;;;;;;;;;5128126;28;20405;-86
2022/01/23 07:01:58;;;;;;;37.33;22.75;;;;;;;;;;5128470;27;20810;-85
2022/01/23 07:04:25;;;;;;;39.92;22.98;;;;;;;;;;5128137;28;20428;-86
2022/01/23 07:06:52;;;;;;;35.50;22.23;;;;;;;;;;5129079;28;20396;-86
2022/01/23 07:09:19;;;;;;;37.92;23.08;;;;;;;;;;5128498;27;20400;-85
2022/01/23 07:11:46;;;;;;;38.45;23.90;;;;;;;;;;5128304;28;20449;-85
2022/01/23 07:14:13;;;;;;;38.25;23.30;;;;;;;;;;5128382;28;20412;-86
2022/01/23 07:16:40;;;;;;;36.03;22.42;;;;;;;;;;5127987;28;20454;-86
2022/01/23 07:19:08;;;;;;;36.50;22.85;;;;;;;;;;5128911;28;20523;-86
2022/01/23 07:21:35;;;;;;;34.13;22.08;;;;;;;;;;5124235;28;20404;-85
2022/01/23 07:24:02;;;;;;;35.42;21.73;;;;;;;;;;5128462;28;20389;-85
2022/01/23 07:26:29;;;;;;;37.80;22.38;;;;;;;;;;5127837;28;20420;-86
2022/01/23 07:28:58;;;;;;;34.08;22.65;;;;;;;;;;5129925;27;20534;-85
2022/01/23 07:31:44;;;;;;;35.00;21.98;;;;;;;;;;5131531;27;20409;-86
2022/01/23 07:34:13;;;;;;;35.00;22.48;;;;;;;;;;5129462;27;20405;-84
2022/01/23 07:36:40;;;;;;;36.22;21.95;;;;;;;;;;5131511;27;20397;-84
2022/01/23 07:39:07;;;;;;;33.83;22.60;;;;;;;;;;5132707;27;20450;-84
2022/01/23 07:41:34;;;;;;;35.08;22.20;;;;;;;;;;5131453;27;20446;-86
2022/01/23 07:44:01;;;;;;;34.22;22.45;;;;;;;;;;5132227;27;20478;-84
2022/01/23 07:46:28;;;;;;;34.95;22.15;;;;;;;;;;5131469;27;20805;-85
2022/01/23 07:48:55;;;;;;;36.92;23.25;;;;;;;;;;5131308;27;20952;-84
2022/01/23 07:51:24;;;;;;;34.50;22.10;;;;;;;;;;5131753;27;20393;-84
2022/01/23 07:53:51;;;;;;;36.10;22.73;;;;;;;;;;5131435;27;20397;-85
2022/01/23 07:56:18;;;;;;;35.50;22.43;;;;;;;;;;5130472;27;20398;-84
2022/01/23 07:58:45;;;;;;;36.60;23.30;;;;;;;;;;5131349;27;20401;-85
2022/01/23 08:01:12;;;;;;;33.42;22.05;;;;;;;;;;5131574;27;20872;-85
2022/01/23 08:03:39;;;;;;;34.10;22.60;;;;;;;;;;5130495;27;20409;-84
2022/01/23 08:06:05;;;;;;;37.15;24.05;;;;;;;;;;5131459;27;20397;-85
2022/01/23 08:08:34;;;;;;;37.73;23.63;;;;;;;;;;5131564;27;20506;-85
2022/01/23 08:11:02;;;;;;;37.28;23.90;;;;;;;;;;5130442;27;20453;-86
2022/01/23 08:13:29;;;;;;;37.42;24.23;;;;;;;;;;5131008;27;20416;-86
2022/01/23 08:15:56;;;;;;;38.08;24.48;;;;;;;;;;5130989;27;20424;-85
2022/01/23 08:18:23;;;;;;;37.53;24.42;;;;;;;;;;5130791;27;20616;-86
2022/01/23 08:20:50;;;;;;;37.58;24.63;;;;;;;;;;5130885;27;20865;-86
2022/01/23 08:23:17;;;;;;;37.67;24.50;;;;;;;;;;5131226;27;20405;-84
2022/01/23 08:25:46;;;;;;;37.80;24.67;;;;;;;;;;5130607;27;20409;-85
2022/01/23 08:28:12;;;;;;;36.50;24.13;;;;;;;;;;5130645;27;20418;-85
2022/01/23 08:30:39;;;;;;;39.95;24.92;;;;;;;;;;5129952;27;20401;-86
2022/01/23 08:33:06;;;;;;;40.35;24.92;;;;;;;;;;5130194;27;20453;-86
2022/01/23 08:35:33;;;;;;;37.10;24.20;;;;;;;;;;5125992;27;20470;-85
2022/01/23 08:38:00;;;;;;;39.38;25.35;;;;;;;;;;5130761;27;20872;-86
2022/01/23 08:40:46;;;;;;;38.53;24.65;;;;;;;;;;5130502;27;21041;-85
2022/01/23 08:43:17;;;;;;;38.20;25.87;;;;;;;;;;5128699;27;20405;-86
2022/01/23 08:45:44;;;;;;;38.30;24.48;;;;;;;;;;5130567;27;20397;-86
2022/01/23 08:48:11;;;;;;;38.15;24.83;;;;;;;;;;5130518;27;20457;-88
2022/01/23 08:50:39;;;;;;;39.30;24.95;;;;;;;;;;5129811;27;20413;-88
2022/01/23 08:53:06;;;;;;;38.53;25.17;;;;;;;;;;5130432;27;20389;-89
2022/01/23 08:55:33;;;;;;;38.88;25.35;;;;;;;;;;5125269;27;20908;-88
2022/01/23 08:58:00;;;;;;;40.25;25.75;;;;;;;;;;5130489;27;20411;-88
2022/01/23 09:00:29;;;;;;;41.72;27.30;;;;;;;;;;5129441;27;20944;-87
2022/01/23 09:02:56;;;;;;;42.80;26.77;;;;;;;;;;5130028;27;20397;-89
2022/01/23 09:05:23;;;;;;;40.40;26.75;;;;;;;;;;5129060;27;20389;-87
2022/01/23 09:07:50;;;;;;;42.42;27.70;;;;;;;;;;5110807;27;20440;-88
2022/01/23 09:10:24;;;;;;;42.40;27.98;;;;;;;;;;5128114;27;20397;-88
2022/01/23 09:13:05;;;;;;;44.97;29.40;;;;;;;;;;5128306;27;20516;-89
2022/01/23 09:15:33;;;;;;;46.70;29.88;;;;;;;;;;5127713;27;20409;-89
2022/01/23 09:18:00;;;;;;;43.28;28.77;;;;;;;;;;5128420;27;20948;-89
2022/01/23 09:20:27;;;;;;;43.83;29.95;;;;;;;;;;5127765;27;20884;-89
2022/01/23 09:22:54;;;;;;;49.17;30.83;;;;;;;;;;5125471;27;20798;-86
2022/01/23 09:25:22;;;;;;;49.78;31.30;;;;;;;;;;5127513;27;20405;-88
2022/01/23 09:27:49;;;;;;;51.08;33.67;;;;;;;;;;5128430;27;20487;-88
2022/01/23 09:30:20;;;;;;;49.58;32.35;;;;;;;;;;5127554;27;20884;-88
2022/01/23 09:32:49;;;;;;;47.83;32.67;;;;;;;;;;5127609;27;20807;-87
2022/01/23 09:35:17;;;;;;;52.78;33.35;;;;;;;;;;5131100;27;20411;-88
2022/01/23 09:37:45;;;;;;;55.10;34.15;;;;;;;;;;5129503;27;20392;-88
2022/01/23 09:40:12;;;;;;;50.42;32.90;;;;;;;;;;5129866;27;20787;-87
2022/01/23 09:42:44;;;;;;;48.42;30.08;;;;;;;;;;5128965;27;20453;-88
2022/01/23 09:45:13;;;;;;;45.35;28.58;;;;;;;;;;5128468;27;20457;-86
2022/01/23 09:47:40;;;;;;;45.43;29.57;;;;;;;;;;5127180;27;20453;-85
2022/01/23 09:50:11;;;;;;;45.40;26.93;;;;;;;;;;5128617;27;20477;-87
2022/01/23 09:52:42;;;;;;;42.58;27.15;;;;;;;;;;5159736;27;20375;-85
2022/01/23 09:55:12;;;;;;;43.63;26.83;;;;;;;;;;5153382;27;20883;-85
2022/01/23 09:57:41;;;;;;;44.47;27.10;;;;;;;;;;5135819;27;20399;-87
2022/01/23 10:00:11;;;;;;;43.72;28.40;;;;;;;;;;5139454;27;20395;-86
2022/01/23 10:02:39;;;;;;;43.97;26.73;;;;;;;;;;5134519;27;20448;-85
2022/01/23 10:05:07;;;;;;;43.08;28.35;;;;;;;;;;5132912;27;20502;-85
2022/01/23 10:07:39;;;;;;;43.08;27.02;;;;;;;;;;5131062;27;20405;-85
2022/01/23 10:10:13;;;;;;;42.77;26.93;;;;;;;;;;5137728;27;20426;-86
2022/01/23 10:12:41;;;;;;;42.15;26.27;;;;;;;;;;5135181;27;20485;-84
2022/01/23 10:15:10;;;;;;;41.10;26.05;;;;;;;;;;5131676;27;20413;-85
2022/01/23 10:17:37;;;;;;;42.90;26.13;;;;;;;;;;5144465;27;20403;-86
2022/01/23 10:20:06;;;;;;;40.55;25.67;;;;;;;;;;5129642;27;20468;-86
2022/01/23 10:22:34;;;;;;;39.80;25.98;;;;;;;;;;5133385;27;20392;-85
2022/01/23 10:25:12;;;;;;;42.90;26.60;;;;;;;;;;5131975;27;20562;-84
2022/01/23 10:27:52;;;;;;;41.60;25.65;;;;;;;;;;5130048;27;20387;-86
2022/01/23 10:30:19;;;;;;;40.42;24.88;;;;;;;;;;5127606;28;20397;-85
2022/01/23 10:32:57;;;;;;;41.42;25.83;;;;;;;;;;5126163;27;20433;-85
2022/01/23 10:35:25;;;;;;;40.03;25.38;;;;;;;;;;5129825;27;20487;-85
2022/01/23 10:37:54;;;;;;;41.30;24.15;;;;;;;;;;5142719;27;20395;-86
2022/01/23 10:40:47;;;;;;;37.23;23.20;;;;;;;;;;5138871;27;20923;-86
2022/01/23 10:48:48;;;;;;;37.67;22.02;;;;;;;;;;5127697;27;20437;-85
2022/01/23 10:51:23;;;;;;;35.13;22.03;;;;;;;;;;5127986;27;20896;-86
2022/01/23 10:54:02;;;;;;;39.25;21.92;;;;;;;;;;5125880;27;20864;-85
2022/01/23 10:56:33;;;;;;;34.90;22.27;;;;;;;;;;5128045;27;21058;-87
2022/01/23 10:59:02;;;;;;;36.30;21.92;;;;;;;;;;5130949;27;20404;-85
2022/01/23 11:01:29;;;;;;;36.58;22.05;;;;;;;;;;5124505;27;20427;-86
2022/01/23 11:04:11;;;;;;;38.15;22.48;;;;;;;;;;5128572;27;20451;-83
2022/01/23 11:07:00;;;;;;;38.25;22.50;;;;;;;;;;5130765;27;20395;-86
2022/01/23 11:09:29;;;;;;;38.40;22.40;;;;;;;;;;5130485;27;20401;-86
2022/01/23 11:12:03;;;;;;;41.50;24.02;;;;;;;;;;5135775;27;20975;-86
2022/01/23 11:17:23;;;;;;;41.63;24.10;;;;;;;;;;5133543;27;20764;-87
2022/01/23 11:19:52;;;;;;;45.15;24.40;;;;;;;;;;5134499;27;20430;-87
2022/01/23 11:22:20;;;;;;;47.05;25.02;;;;;;;;;;5132719;27;20396;-87
2022/01/23 11:24:48;;;;;;;46.47;25.80;;;;;;;;;;5129944;27;20401;-86
2022/01/23 11:27:18;;;;;;;51.08;25.88;;;;;;;;;;5131184;27;20451;-86
2022/01/23 11:29:56;;;;;;;47.53;26.03;;;;;;;;;;5129402;27;20517;-86
2022/01/23 11:32:25;;;;;;;49.40;25.80;;;;;;;;;;5129288;27;20418;-84
2022/01/23 11:34:57;;;;;;;48.67;25.10;;;;;;;;;;5129571;27;20405;-85
2022/01/23 11:37:26;;;;;;;54.90;26.90;;;;;;;;;;5130814;27;20587;-84
2022/01/23 11:39:58;;;;;;;53.07;26.47;;;;;;;;;;5129848;27;20490;-86
2022/01/23 11:50:49;;;;;;;56.20;27.73;;;;;;;;;;5130169;27;20455;-86
2022/01/23 11:53:52;;;;;;;55.65;27.73;;;;;;;;;;5128324;27;20403;-86
2022/01/23 11:56:44;;;;;;;54.88;27.02;;;;;;;;;;5126184;27;20416;-85
2022/01/23 11:59:26;;;;;;;53.77;27.00;;;;;;;;;;5127537;27;20412;-84
2022/01/23 12:02:28;;;;;;;54.42;27.60;;;;;;;;;;5128805;27;20405;-85
2022/01/23 12:05:22;;;;;;;54.58;27.38;;;;;;;;;;5129171;27;20450;-86
2022/01/23 12:08:28;;;;;;;55.08;28.13;;;;;;;;;;5129596;27;20485;-85
2022/01/23 12:11:35;;;;;;;54.23;26.73;;;;;;;;;;5130176;27;20791;-87
2022/01/23 12:17:51;;;;;;;51.67;25.83;;;;;;;;;;5131569;27;20560;-86
2022/01/23 12:20:33;;;;;;;53.53;27.08;;;;;;;;;;5125913;27;20459;-84
2022/01/23 12:23:00;;;;;;;52.00;26.48;;;;;;;;;;5130110;27;20413;-85
2022/01/23 12:25:33;;;;;;;52.50;26.67;;;;;;;;;;5132038;27;20389;-85
2022/01/23 12:28:25;;;;;;;53.72;26.50;;;;;;;;;;5128545;27;20462;-86
2022/01/23 12:30:55;;;;;;;54.10;27.13;;;;;;;;;;5132466;27;20396;-86
2022/01/23 12:33:31;;;;;;;53.78;26.98;;;;;;;;;;5131519;27;20411;-83
2022/01/23 12:36:08;;;;;;;51.90;26.80;;;;;;;;;;5127285;27;20416;-85
2022/01/23 12:38:40;;;;;;;51.55;26.85;;;;;;;;;;5127969;27;20397;-84
2022/01/23 12:41:29;;;;;;;54.15;26.80;;;;;;;;;;5133349;27;20483;-85
2022/01/23 12:44:01;;;;;;;49.53;25.98;;;;;;;;;;5125641;27;20408;-85
2022/01/23 12:46:39;;;;;;;52.05;26.75;;;;;;;;;;5127035;27;20485;-84
2022/01/23 12:49:28;;;;;;;50.00;26.50;;;;;;;;;;5129466;27;20404;-84
2022/01/23 12:52:11;;;;;;;55.30;27.30;;;;;;;;;;5129528;27;20397;-86
2022/01/23 12:54:56;;;;;;;88.32;38.13;;;;;;;;;;5136627;27;20407;-86
2022/01/23 12:57:31;;;;;;;77.05;35.90;;;;;;;;;;5139079;27;20418;-86
2022/01/23 13:00:03;;;;;;;90.05;41.67;;;;;;;;;;5131444;27;20404;-86
2022/01/23 13:02:39;;;;;;;67.03;32.88;;;;;;;;;;5125553;27;20412;-86
2022/01/23 13:05:07;;;;;;;60.20;30.27;;;;;;;;;;5131959;27;20780;-86
2022/01/23 13:07:41;;;;;;;61.55;31.85;;;;;;;;;;5129239;27;20450;-86
2022/01/23 13:10:28;;;;;;;51.40;27.77;;;;;;;;;;5128782;27;20500;-84
2022/01/23 13:13:07;;;;;;;51.77;27.37;;;;;;;;;;5128662;27;20476;-85
2022/01/23 13:15:57;;;;;;;50.35;26.50;;;;;;;;;;5128584;27;20825;-85
2022/01/23 13:27:26;;;;;;;49.67;26.58;;;;;;;;;;5148516;27;20411;-85
2022/01/23 13:30:00;;;;;;;53.45;27.50;;;;;;;;;;5128325;27;25113;-85
2022/01/23 13:32:37;;;;;;;49.00;26.35;;;;;;;;;;5125252;27;25142;-85
2022/01/23 13:35:10;;;;;;;47.70;26.65;;;;;;;;;;5127047;27;25156;-86
2022/01/23 13:37:39;;;;;;;48.30;26.73;;;;;;;;;;5131209;27;20499;-85
2022/01/23 13:40:09;;;;;;;48.00;27.45;;;;;;;;;;5126153;27;20397;-85
2022/01/23 13:42:51;;;;;;;46.17;26.58;;;;;;;;;;5126718;27;20421;-85
2022/01/23 13:51:30;;;;;;;50.60;28.55;;;;;;;;;;5124894;27;20392;-85
2022/01/23 13:59:36;;;;;;;51.10;28.65;;;;;;;;;;5122946;27;20383;-84
2022/01/23 14:02:17;;;;;;;49.83;28.60;;;;;;;;;;5123309;27;20408;-85
2022/01/23 14:04:46;;;;;;;49.80;29.08;;;;;;;;;;5123323;27;20396;-85
2022/01/23 14:07:21;;;;;;;51.60;27.95;;;;;;;;;;5120260;27;20417;-85
2022/01/23 14:09:48;;;;;;;48.38;28.45;;;;;;;;;;5116225;27;20941;-84
2022/01/23 14:12:17;;;;;;;48.67;28.17;;;;;;;;;;5117747;27;20484;-84
2022/01/23 14:14:56;;;;;;;48.22;28.90;;;;;;;;;;5118988;27;20757;-85
2022/01/23 14:17:25;;;;;;;49.70;29.17;;;;;;;;;;5120464;27;20499;-85
2022/01/23 14:20:11;;;;;;;52.03;34.42;;;;;;;;;;5119027;27;20425;-84
2022/01/23 14:22:42;;;;;;;44.63;27.23;;;;;;;;;;5122647;27;20804;-85
2022/01/23 14:25:12;;;;;;;46.83;27.67;;;;;;;;;;5122310;27;20548;-85
2022/01/23 14:27:40;;;;;;;46.97;27.00;;;;;;;;;;5126451;27;20404;-84
2022/01/23 14:30:10;;;;;;;43.22;26.33;;;;;;;;;;5128441;27;20418;-85
2022/01/23 14:32:43;;;;;;;43.80;26.05;;;;;;;;;;5121074;27;20410;-85
2022/01/23 14:35:12;;;;;;;44.90;26.85;;;;;;;;;;5121092;27;20393;-83
2022/01/23 14:37:42;;;;;;;45.35;26.90;;;;;;;;;;5124495;27;20492;-84
2022/01/23 14:40:11;;;;;;;43.87;26.53;;;;;;;;;;5127976;27;20412;-85
2022/01/23 14:42:38;;;;;;;43.90;26.40;;;;;;;;;;5126877;27;20831;-85
2022/01/23 14:45:06;;;;;;;42.45;26.02;;;;;;;;;;5127997;27;20393;-85
2022/01/23 14:47:37;;;;;;;44.35;26.20;;;;;;;;;;5124202;27;20469;-85
2022/01/23 14:50:07;;;;;;;42.70;26.48;;;;;;;;;;5125326;27;20396;-75
2022/01/23 14:52:34;;;;;;;43.47;25.80;;;;;;;;;;5128208;27;20437;-76
2022/01/23 14:55:04;;;;;;;45.33;25.23;;;;;;;;;;5132278;27;20487;-76
2022/01/23 14:57:33;;;;;;;43.40;25.07;;;;;;;;;;5127172;27;20416;-76
2022/01/23 15:00:00;;;;;;;41.70;25.45;;;;;;;;;;5127780;27;20400;-76
2022/01/23 15:02:28;;;;;;;44.20;25.52;;;;;;;;;;5127410;27;20860;-77
2022/01/23 15:04:56;;;;;;;44.28;24.45;;;;;;;;;;5128434;27;20405;-84
2022/01/23 15:07:23;;;;;;;45.33;25.85;;;;;;;;;;5129831;27;20400;-83
2022/01/23 15:09:52;;;;;;;44.47;25.13;;;;;;;;;;5121469;27;20462;-83
2022/01/23 15:12:20;;;;;;;47.72;26.02;;;;;;;;;;5129838;27;20401;-84
2022/01/23 15:14:47;;;;;;;43.63;25.75;;;;;;;;;;5128523;27;20428;-84
2022/01/23 15:17:14;;;;;;;47.93;25.63;;;;;;;;;;5131907;27;20415;-83
2022/01/23 15:19:41;;;;;;;46.15;24.67;;;;;;;;;;5128200;27;20405;-85
2022/01/23 15:22:08;;;;;;;47.30;26.90;;;;;;;;;;5131452;27;20425;-84
2022/01/23 15:24:34;;;;;;;50.08;26.73;;;;;;;;;;5128816;27;20398;-84
2022/01/23 15:27:01;;;;;;;46.80;26.85;;;;;;;;;;5124461;27;20464;-84
2022/01/23 15:29:29;;;;;;;47.08;26.75;;;;;;;;;;5130417;27;21074;-84
2022/01/23 15:31:56;;;;;;;51.30;27.77;;;;;;;;;;5132582;27;20397;-85
2022/01/23 15:34:24;;;;;;;47.60;26.17;;;;;;;;;;5130446;27;20876;-85
2022/01/23 15:36:53;;;;;;;50.60;27.42;;;;;;;;;;5139611;27;20415;-89
2022/01/23 15:39:20;;;;;;;48.33;28.30;;;;;;;;;;5141060;27;20503;-85
2022/01/23 15:41:47;;;;;;;48.70;27.33;;;;;;;;;;5140059;27;20747;-86
2022/01/23 15:44:14;;;;;;;47.17;27.83;;;;;;;;;;5129333;27;20397;-84
2022/01/23 15:46:43;;;;;;;47.75;27.23;;;;;;;;;;5129793;27;20421;-86
2022/01/23 15:49:11;;;;;;;50.83;28.02;;;;;;;;;;5123765;27;20423;-85
2022/01/23 15:51:38;;;;;;;52.70;27.15;;;;;;;;;;5124171;27;20403;-86
2022/01/23 15:54:06;;;;;;;54.50;29.00;;;;;;;;;;5129276;27;20466;-85
2022/01/23 15:56:33;;;;;;;50.63;28.13;;;;;;;;;;5141051;27;20480;-85
2022/01/23 15:59:00;;;;;;;51.43;28.73;;;;;;;;;;5140964;27;20730;-84
2022/01/23 16:01:27;;;;;;;52.97;28.25;;;;;;;;;;5137698;27;21202;-86
2022/01/23 16:03:55;;;;;;;60.60;31.45;;;;;;;;;;5136348;27;20393;-85
2022/01/23 16:06:23;;;;;;;54.63;29.17;;;;;;;;;;5138595;27;20504;-85
2022/01/23 16:08:50;;;;;;;58.87;32.67;;;;;;;;;;5140271;27;20450;-84
2022/01/23 16:11:17;;;;;;;80.57;40.83;;;;;;;;;;5132421;27;20461;-83
2022/01/23 16:13:45;;;;;;;68.40;37.03;;;;;;;;;;5113376;27;20877;-86
2022/01/23 16:16:11;;;;;;;69.90;36.00;;;;;;;;;;5128817;27;20397;-90
2022/01/23 16:18:38;;;;;;;67.63;36.00;;;;;;;;;;5138149;27;20446;-89
2022/01/23 16:21:07;;;;;;;57.80;32.13;;;;;;;;;;5129271;27;20400;-85
2022/01/23 16:23:35;;;;;;;60.25;30.88;;;;;;;;;;5125869;27;20978;-84
2022/01/23 16:26:02;;;;;;;67.10;35.97;;;;;;;;;;5135421;27;20756;-84
2022/01/23 16:28:29;;;;;;;70.25;37.20;;;;;;;;;;5125441;27;20449;-83
2022/01/23 16:30:58;;;;;;;61.33;33.58;;;;;;;;;;5130360;27;20425;-84
2022/01/23 16:33:26;;;;;;;65.03;36.22;;;;;;;;;;5125800;27;20392;-84
2022/01/23 16:35:54;;;;;;;60.72;33.15;;;;;;;;;;5128938;27;20403;-84
2022/01/23 16:38:22;;;;;;;58.97;32.38;;;;;;;;;;5127651;27;20417;-86
2022/01/23 16:40:54;;;;;;;70.38;39.00;;;;;;;;;;5125616;27;20783;-84
2022/01/23 16:43:23;;;;;;;65.78;36.28;;;;;;;;;;5124180;27;20423;-85
2022/01/23 16:45:51;;;;;;;69.45;36.92;;;;;;;;;;5129265;27;20614;-85
2022/01/23 16:48:18;;;;;;;65.85;36.20;;;;;;;;;;5126367;27;20413;-84
2022/01/23 16:50:45;;;;;;;66.97;35.53;;;;;;;;;;5126878;27;20401;-82
2022/01/23 16:53:12;;;;;;;60.90;33.42;;;;;;;;;;5123899;27;20746;-84
2022/01/23 16:55:40;;;;;;;60.85;34.17;;;;;;;;;;5124344;27;20467;-83
2022/01/23 16:58:07;;;;;;;62.83;34.42;;;;;;;;;;5128097;27;20845;-83
2022/01/23 17:00:34;;;;;;;67.00;36.92;;;;;;;;;;5124529;27;20394;-85
2022/01/23 17:03:01;;;;;;;63.60;35.92;;;;;;;;;;5124373;27;20393;-84
2022/01/23 17:05:29;;;;;;;64.00;34.45;;;;;;;;;;5136466;27;20409;-83
2022/01/23 17:07:55;;;;;;;63.75;35.65;;;;;;;;;;5128620;27;20400;-84
2022/01/23 17:10:23;;;;;;;63.95;34.50;;;;;;;;;;5130944;27;20417;-84
2022/01/23 17:12:52;;;;;;;65.25;35.10;;;;;;;;;;5136746;27;20372;-85
2022/01/23 17:15:19;;;;;;;61.75;34.30;;;;;;;;;;5145668;27;20400;-85
2022/01/23 17:17:46;;;;;;;62.85;34.05;;;;;;;;;;5125610;27;20865;-85